sensor_id;sensor_type;location;lat;lon;timestamp;temperature;humidity
14471;DHT22;7321;50.802;4.336;2023-07-13T00:00:47;18.90;99.90
14471;DHT22;7321;50.802;4.336;2023-07-13T00:03:13;18.90;99.90
14471;DHT22;7321;50.802;4.336;2023-07-13T00:05:40;18.90;99.90
14471;DHT22;7321;50.802;4.336;2023-07-13T00:08:07;19.00;99.90
14471;DHT22;7321;50.802;4.336;2023-07-13T00:10:34;18.80;99.90
14471;DHT22;7321;50.802;4.336;2023-07-13T00:12:59;18.80;99.90
14471;DHT22;7321;50.802;4.336;2023-07-13T00:15:27;18.70;99.90
14471;DHT22;7321;50.802;4.336;2023-07-13T00:17:57;18.70;99.90
14471;DHT22;7321;50.802;4.336;2023-07-13T00:20:24;18.70;99.90
14471;DHT22;7321;50.802;4.336;2023-07-13T00:22:52;18.60;99.90
14471;DHT22;7321;50.802;4.336;2023-07-13T00:25:20;18.50;99.90
14471;DHT22;7321;50.802;4.336;2023-07-13T00:27:47;18.50;99.90
14471;DHT22;7321;50.802;4.336;2023-07-13T00:30:17;18.50;99.90
14471;DHT22;7321;50.802;4.336;2023-07-13T00:32:42;18.60;99.90
14471;DHT22;7321;50.802;4.336;2023-07-13T00:35:08;18.50;99.90
14471;DHT22;7321;50.802;4.336;2023-07-13T00:37:34;18.50;99.90
14471;DHT22;7321;50.802;4.336;2023-07-13T00:40:05;18.50;99.90
14471;DHT22;7321;50.802;4.336;2023-07-13T00:42:31;18.50;99.90
14471;DHT22;7321;50.802;4.336;2023-07-13T00:47:26;18.40;99.90
14471;DHT22;7321;50.802;4.336;2023-07-13T00:49:52;18.30;99.90
14471;DHT22;7321;50.802;4.336;2023-07-13T00:52:18;18.40;99.90
14471;DHT22;7321;50.802;4.336;2023-07-13T00:54:45;18.20;99.90
14471;DHT22;7321;50.802;4.336;2023-07-13T00:57:16;18.20;99.90
14471;DHT22;7321;50.802;4.336;2023-07-13T00:59:47;18.30;99.90
14471;DHT22;7321;50.802;4.336;2023-07-13T01:02:14;18.30;99.90
14471;DHT22;7321;50.802;4.336;2023-07-13T01:04:41;18.30;99.90
14471;DHT22;7321;50.802;4.336;2023-07-13T01:07:10;18.20;99.90
14471;DHT22;7321;50.802;4.336;2023-07-13T01:09:37;18.20;99.90
14471;DHT22;7321;50.802;4.336;2023-07-13T01:12:03;18.20;99.90
14471;DHT22;7321;50.802;4.336;2023-07-13T01:14:29;18.20;99.90
14471;DHT22;7321;50.802;4.336;2023-07-13T01:16:55;18.10;99.90
14471;DHT22;7321;50.802;4.336;2023-07-13T01:22:10;18.00;99.90
14471;DHT22;7321;50.802;4.336;2023-07-13T01:24:38;17.90;99.90
14471;DHT22;7321;50.802;4.336;2023-07-13T01:27:06;17.90;99.90
14471;DHT22;7321;50.802;4.336;2023-07-13T01:29:33;17.90;99.90
14471;DHT22;7321;50.802;4.336;2023-07-13T01:31:59;18.00;99.90
14471;DHT22;7321;50.802;4.336;2023-07-13T01:34:27;18.00;99.90
14471;DHT22;7321;50.802;4.336;2023-07-13T01:36:54;18.00;99.90
14471;DHT22;7321;50.802;4.336;2023-07-13T01:39:21;17.90;99.90
14471;DHT22;7321;50.802;4.336;2023-07-13T01:41:47;17.90;99.90
14471;DHT22;7321;50.802;4.336;2023-07-13T01:44:13;18.00;99.90
14471;DHT22;7321;50.802;4.336;2023-07-13T01:46:39;17.90;99.90
14471;DHT22;7321;50.802;4.336;2023-07-13T01:49:05;18.00;99.90
14471;DHT22;7321;50.802;4.336;2023-07-13T01:51:31;18.00;99.90
14471;DHT22;7321;50.802;4.336;2023-07-13T01:53:57;18.00;99.90
14471;DHT22;7321;50.802;4.336;2023-07-13T01:56:22;18.00;99.90
14471;DHT22;7321;50.802;4.336;2023-07-13T01:58:48;18.10;99.90
14471;DHT22;7321;50.802;4.336;2023-07-13T02:01:14;18.00;99.90
14471;DHT22;7321;50.802;4.336;2023-07-13T02:03:40;18.10;99.90
14471;DHT22;7321;50.802;4.336;2023-07-13T02:06:06;18.00;99.90
14471;DHT22;7321;50.802;4.336;2023-07-13T02:08:33;18.10;99.90
14471;DHT22;7321;50.802;4.336;2023-07-13T02:10:59;18.00;99.90
14471;DHT22;7321;50.802;4.336;2023-07-13T02:13:25;17.90;99.90
14471;DHT22;7321;50.802;4.336;2023-07-13T02:15:52;17.90;99.90
14471;DHT22;7321;50.802;4.336;2023-07-13T02:18:18;18.00;99.90
14471;DHT22;7321;50.802;4.336;2023-07-13T02:20:44;17.90;99.90
14471;DHT22;7321;50.802;4.336;2023-07-13T02:23:10;18.00;99.90
14471;DHT22;7321;50.802;4.336;2023-07-13T02:25:36;18.00;99.90
14471;DHT22;7321;50.802;4.336;2023-07-13T02:28:02;17.90;99.90
14471;DHT22;7321;50.802;4.336;2023-07-13T02:30:28;17.80;99.90
14471;DHT22;7321;50.802;4.336;2023-07-13T02:32:56;17.80;99.90
14471;DHT22;7321;50.802;4.336;2023-07-13T02:35:22;17.60;99.90
14471;DHT22;7321;50.802;4.336;2023-07-13T02:37:48;17.60;99.90
14471;DHT22;7321;50.802;4.336;2023-07-13T02:40:14;17.50;99.90
14471;DHT22;7321;50.802;4.336;2023-07-13T02:42:41;17.60;99.90
14471;DHT22;7321;50.802;4.336;2023-07-13T02:45:08;17.50;99.90
14471;DHT22;7321;50.802;4.336;2023-07-13T02:47:35;17.60;99.90
14471;DHT22;7321;50.802;4.336;2023-07-13T02:50:02;17.60;99.90
14471;DHT22;7321;50.802;4.336;2023-07-13T02:52:28;17.70;99.90
14471;DHT22;7321;50.802;4.336;2023-07-13T02:54:54;17.40;99.90
14471;DHT22;7321;50.802;4.336;2023-07-13T02:57:19;17.30;99.90
14471;DHT22;7321;50.802;4.336;2023-07-13T02:59:46;17.30;99.90
14471;DHT22;7321;50.802;4.336;2023-07-13T03:02:11;17.30;99.90
14471;DHT22;7321;50.802;4.336;2023-07-13T03:04:37;17.30;99.90
14471;DHT22;7321;50.802;4.336;2023-07-13T03:07:04;17.30;99.90
14471;DHT22;7321;50.802;4.336;2023-07-13T03:09:31;17.30;99.90
14471;DHT22;7321;50.802;4.336;2023-07-13T03:11:56;17.30;99.90
14471;DHT22;7321;50.802;4.336;2023-07-13T03:14:23;17.40;99.90
14471;DHT22;7321;50.802;4.336;2023-07-13T03:16:49;17.50;99.90
14471;DHT22;7321;50.802;4.336;2023-07-13T03:19:15;17.50;99.90
14471;DHT22;7321;50.802;4.336;2023-07-13T03:21:41;17.50;99.90
14471;DHT22;7321;50.802;4.336;2023-07-13T03:24:07;17.40;99.90
14471;DHT22;7321;50.802;4.336;2023-07-13T03:26:33;17.40;99.90
14471;DHT22;7321;50.802;4.336;2023-07-13T03:28:59;17.40;99.90
14471;DHT22;7321;50.802;4.336;2023-07-13T03:31:27;17.40;99.90
14471;DHT22;7321;50.802;4.336;2023-07-13T03:33:55;17.40;99.90
14471;DHT22;7321;50.802;4.336;2023-07-13T03:36:24;17.30;99.90
14471;DHT22;7321;50.802;4.336;2023-07-13T03:38:53;17.40;99.90
14471;DHT22;7321;50.802;4.336;2023-07-13T03:41:20;17.40;99.90
14471;DHT22;7321;50.802;4.336;2023-07-13T03:43:46;17.50;99.90
14471;DHT22;7321;50.802;4.336;2023-07-13T03:46:14;17.40;99.90
14471;DHT22;7321;50.802;4.336;2023-07-13T03:48:41;17.40;99.90
14471;DHT22;7321;50.802;4.336;2023-07-13T03:51:08;17.40;99.90
14471;DHT22;7321;50.802;4.336;2023-07-13T03:53:38;17.50;99.90
14471;DHT22;7321;50.802;4.336;2023-07-13T03:56:05;17.50;99.90
14471;DHT22;7321;50.802;4.336;2023-07-13T03:58:32;17.60;99.90
14471;DHT22;7321;50.802;4.336;2023-07-13T04:00:59;17.50;99.90
14471;DHT22;7321;50.802;4.336;2023-07-13T04:03:26;17.40;99.90
14471;DHT22;7321;50.802;4.336;2023-07-13T04:05:54;17.40;99.90
14471;DHT22;7321;50.802;4.336;2023-07-13T04:08:35;17.50;99.90
14471;DHT22;7321;50.802;4.336;2023-07-13T04:11:02;17.70;99.90
14471;DHT22;7321;50.802;4.336;2023-07-13T04:13:29;17.90;99.90
14471;DHT22;7321;50.802;4.336;2023-07-13T04:15:55;17.90;99.90
14471;DHT22;7321;50.802;4.336;2023-07-13T04:18:21;17.90;99.90
14471;DHT22;7321;50.802;4.336;2023-07-13T04:20:49;18.00;99.90
14471;DHT22;7321;50.802;4.336;2023-07-13T04:23:18;17.90;99.90
14471;DHT22;7321;50.802;4.336;2023-07-13T04:25:45;17.90;99.90
14471;DHT22;7321;50.802;4.336;2023-07-13T04:28:12;17.90;99.90
14471;DHT22;7321;50.802;4.336;2023-07-13T04:30:38;18.00;99.90
14471;DHT22;7321;50.802;4.336;2023-07-13T04:33:03;18.00;99.90
14471;DHT22;7321;50.802;4.336;2023-07-13T04:35:30;18.10;99.90
14471;DHT22;7321;50.802;4.336;2023-07-13T04:37:57;18.10;99.90
14471;DHT22;7321;50.802;4.336;2023-07-13T04:40:23;18.00;99.90
14471;DHT22;7321;50.802;4.336;2023-07-13T04:42:48;18.00;99.90
14471;DHT22;7321;50.802;4.336;2023-07-13T04:45:14;18.20;99.90
14471;DHT22;7321;50.802;4.336;2023-07-13T04:47:41;18.10;99.90
14471;DHT22;7321;50.802;4.336;2023-07-13T04:50:08;18.30;99.90
14471;DHT22;7321;50.802;4.336;2023-07-13T04:52:34;18.30;99.90
14471;DHT22;7321;50.802;4.336;2023-07-13T04:55:00;18.40;99.90
14471;DHT22;7321;50.802;4.336;2023-07-13T04:57:27;18.30;99.90
14471;DHT22;7321;50.802;4.336;2023-07-13T04:59:53;18.30;99.90
14471;DHT22;7321;50.802;4.336;2023-07-13T05:02:20;18.30;99.90
14471;DHT22;7321;50.802;4.336;2023-07-13T05:04:48;18.30;99.90
14471;DHT22;7321;50.802;4.336;2023-07-13T05:07:14;18.30;99.90
14471;DHT22;7321;50.802;4.336;2023-07-13T05:09:40;18.20;99.90
14471;DHT22;7321;50.802;4.336;2023-07-13T05:12:08;18.30;99.90
14471;DHT22;7321;50.802;4.336;2023-07-13T05:14:34;18.30;99.90
14471;DHT22;7321;50.802;4.336;2023-07-13T05:17:00;18.40;99.90
14471;DHT22;7321;50.802;4.336;2023-07-13T05:19:26;18.50;99.90
14471;DHT22;7321;50.802;4.336;2023-07-13T05:21:52;18.60;99.90
14471;DHT22;7321;50.802;4.336;2023-07-13T05:24:18;18.70;99.90
14471;DHT22;7321;50.802;4.336;2023-07-13T05:26:44;18.70;99.90
14471;DHT22;7321;50.802;4.336;2023-07-13T05:29:10;18.80;99.90
14471;DHT22;7321;50.802;4.336;2023-07-13T05:31:36;18.90;99.90
14471;DHT22;7321;50.802;4.336;2023-07-13T05:34:02;18.70;99.90
14471;DHT22;7321;50.802;4.336;2023-07-13T05:36:28;18.70;99.90
14471;DHT22;7321;50.802;4.336;2023-07-13T05:38:54;18.70;99.90
14471;DHT22;7321;50.802;4.336;2023-07-13T05:41:20;18.80;99.90
14471;DHT22;7321;50.802;4.336;2023-07-13T05:43:46;18.90;99.90
14471;DHT22;7321;50.802;4.336;2023-07-13T05:46:11;18.80;99.90
14471;DHT22;7321;50.802;4.336;2023-07-13T05:48:37;18.90;99.90
14471;DHT22;7321;50.802;4.336;2023-07-13T05:51:03;18.90;99.90
14471;DHT22;7321;50.802;4.336;2023-07-13T05:53:29;19.00;99.90
14471;DHT22;7321;50.802;4.336;2023-07-13T05:55:55;19.00;99.90
14471;DHT22;7321;50.802;4.336;2023-07-13T05:58:21;18.90;99.90
14471;DHT22;7321;50.802;4.336;2023-07-13T06:00:48;18.90;99.90
14471;DHT22;7321;50.802;4.336;2023-07-13T06:03:15;19.00;99.90
14471;DHT22;7321;50.802;4.336;2023-07-13T06:05:41;18.90;99.90
14471;DHT22;7321;50.802;4.336;2023-07-13T06:08:07;19.00;99.90
14471;DHT22;7321;50.802;4.336;2023-07-13T06:10:36;19.10;99.90
14471;DHT22;7321;50.802;4.336;2023-07-13T06:13:02;19.20;99.90
14471;DHT22;7321;50.802;4.336;2023-07-13T06:15:28;19.30;99.90
14471;DHT22;7321;50.802;4.336;2023-07-13T06:17:57;19.40;99.90
14471;DHT22;7321;50.802;4.336;2023-07-13T06:20:26;19.30;99.90
14471;DHT22;7321;50.802;4.336;2023-07-13T06:22:52;19.30;99.90
14471;DHT22;7321;50.802;4.336;2023-07-13T06:25:18;19.40;99.90
14471;DHT22;7321;50.802;4.336;2023-07-13T06:27:44;19.40;99.90
14471;DHT22;7321;50.802;4.336;2023-07-13T06:30:11;19.50;99.90
14471;DHT22;7321;50.802;4.336;2023-07-13T06:32:37;19.50;99.90
14471;DHT22;7321;50.802;4.336;2023-07-13T06:35:03;19.60;99.90
14471;DHT22;7321;50.802;4.336;2023-07-13T06:37:29;19.60;99.90
14471;DHT22;7321;50.802;4.336;2023-07-13T06:39:57;19.70;99.90
14471;DHT22;7321;50.802;4.336;2023-07-13T06:42:23;19.80;99.90
14471;DHT22;7321;50.802;4.336;2023-07-13T06:44:49;19.80;99.90
14471;DHT22;7321;50.802;4.336;2023-07-13T06:47:21;20.00;99.90
14471;DHT22;7321;50.802;4.336;2023-07-13T06:49:46;20.10;99.90
14471;DHT22;7321;50.802;4.336;2023-07-13T06:52:12;20.30;99.90
14471;DHT22;7321;50.802;4.336;2023-07-13T06:54:38;20.40;99.90
14471;DHT22;7321;50.802;4.336;2023-07-13T06:57:04;20.30;99.90
14471;DHT22;7321;50.802;4.336;2023-07-13T06:59:30;20.40;99.90
14471;DHT22;7321;50.802;4.336;2023-07-13T07:01:56;20.40;99.90
14471;DHT22;7321;50.802;4.336;2023-07-13T07:04:22;20.50;99.90
14471;DHT22;7321;50.802;4.336;2023-07-13T07:06:47;20.60;99.90
14471;DHT22;7321;50.802;4.336;2023-07-13T07:09:13;20.60;99.90
14471;DHT22;7321;50.802;4.336;2023-07-13T07:11:40;20.70;99.90
14471;DHT22;7321;50.802;4.336;2023-07-13T07:14:07;20.80;99.90
14471;DHT22;7321;50.802;4.336;2023-07-13T07:16:32;20.90;99.90
14471;DHT22;7321;50.802;4.336;2023-07-13T07:19:01;21.00;99.90
14471;DHT22;7321;50.802;4.336;2023-07-13T07:21:27;21.00;99.90
14471;DHT22;7321;50.802;4.336;2023-07-13T07:23:53;21.10;99.90
14471;DHT22;7321;50.802;4.336;2023-07-13T07:26:19;21.20;99.90
14471;DHT22;7321;50.802;4.336;2023-07-13T07:28:45;21.20;99.90
14471;DHT22;7321;50.802;4.336;2023-07-13T07:31:11;21.30;99.90
14471;DHT22;7321;50.802;4.336;2023-07-13T07:33:37;21.30;99.90
14471;DHT22;7321;50.802;4.336;2023-07-13T07:36:04;21.40;99.90
14471;DHT22;7321;50.802;4.336;2023-07-13T07:38:30;21.30;99.90
14471;DHT22;7321;50.802;4.336;2023-07-13T07:40:56;21.20;99.90
14471;DHT22;7321;50.802;4.336;2023-07-13T07:43:22;21.30;99.90
14471;DHT22;7321;50.802;4.336;2023-07-13T07:45:47;21.30;99.90
14471;DHT22;7321;50.802;4.336;2023-07-13T07:48:13;21.30;99.90
14471;DHT22;7321;50.802;4.336;2023-07-13T07:50:39;21.20;99.90
14471;DHT22;7321;50.802;4.336;2023-07-13T07:53:06;21.30;99.90
14471;DHT22;7321;50.802;4.336;2023-07-13T07:55:34;21.50;99.90
14471;DHT22;7321;50.802;4.336;2023-07-13T07:58:03;21.60;99.90
14471;DHT22;7321;50.802;4.336;2023-07-13T08:00:28;21.70;99.90
14471;DHT22;7321;50.802;4.336;2023-07-13T08:02:58;21.70;99.90
14471;DHT22;7321;50.802;4.336;2023-07-13T08:05:25;21.80;99.90
14471;DHT22;7321;50.802;4.336;2023-07-13T08:07:51;21.90;99.90
14471;DHT22;7321;50.802;4.336;2023-07-13T08:10:17;22.10;99.90
14471;DHT22;7321;50.802;4.336;2023-07-13T08:12:43;21.90;99.90
14471;DHT22;7321;50.802;4.336;2023-07-13T08:15:11;22.00;99.90
14471;DHT22;7321;50.802;4.336;2023-07-13T08:17:37;22.20;99.90
14471;DHT22;7321;50.802;4.336;2023-07-13T08:20:04;22.60;99.90
14471;DHT22;7321;50.802;4.336;2023-07-13T08:22:30;22.80;99.90
14471;DHT22;7321;50.802;4.336;2023-07-13T08:24:56;22.80;99.90
14471;DHT22;7321;50.802;4.336;2023-07-13T08:27:25;22.80;99.90
14471;DHT22;7321;50.802;4.336;2023-07-13T08:29:52;22.90;99.90
14471;DHT22;7321;50.802;4.336;2023-07-13T08:32:19;23.00;99.90
14471;DHT22;7321;50.802;4.336;2023-07-13T08:34:46;22.90;99.90
14471;DHT22;7321;50.802;4.336;2023-07-13T08:37:12;23.10;99.90
14471;DHT22;7321;50.802;4.336;2023-07-13T08:39:37;23.30;99.90
14471;DHT22;7321;50.802;4.336;2023-07-13T08:47:15;23.30;99.90
14471;DHT22;7321;50.802;4.336;2023-07-13T08:49:43;23.40;99.90
14471;DHT22;7321;50.802;4.336;2023-07-13T08:54:52;23.50;99.90
14471;DHT22;7321;50.802;4.336;2023-07-13T08:57:21;23.50;99.90
14471;DHT22;7321;50.802;4.336;2023-07-13T08:59:50;23.50;99.90
14471;DHT22;7321;50.802;4.336;2023-07-13T09:13:27;23.60;99.90
14471;DHT22;7321;50.802;4.336;2023-07-13T09:15:56;23.60;99.90
14471;DHT22;7321;50.802;4.336;2023-07-13T09:20:57;23.60;99.90
14471;DHT22;7321;50.802;4.336;2023-07-13T09:23:27;23.70;99.90
14471;DHT22;7321;50.802;4.336;2023-07-13T09:26:11;23.80;99.90
14471;DHT22;7321;50.802;4.336;2023-07-13T09:28:57;23.80;99.90
14471;DHT22;7321;50.802;4.336;2023-07-13T09:33:55;23.70;99.90
14471;DHT22;7321;50.802;4.336;2023-07-13T09:36:25;23.60;99.90
14471;DHT22;7321;50.802;4.336;2023-07-13T09:39:05;23.70;99.90
14471;DHT22;7321;50.802;4.336;2023-07-13T09:44:13;24.10;99.90
14471;DHT22;7321;50.802;4.336;2023-07-13T09:46:51;24.10;99.90
14471;DHT22;7321;50.802;4.336;2023-07-13T09:49:18;24.40;99.90
14471;DHT22;7321;50.802;4.336;2023-07-13T09:51:44;24.50;99.90
14471;DHT22;7321;50.802;4.336;2023-07-13T09:54:21;24.70;99.90
14471;DHT22;7321;50.802;4.336;2023-07-13T09:56:54;24.70;99.90
14471;DHT22;7321;50.802;4.336;2023-07-13T09:59:23;24.50;99.90
14471;DHT22;7321;50.802;4.336;2023-07-13T10:01:50;24.50;99.90
14471;DHT22;7321;50.802;4.336;2023-07-13T10:04:21;24.40;99.90
14471;DHT22;7321;50.802;4.336;2023-07-13T10:06:48;24.30;99.90
14471;DHT22;7321;50.802;4.336;2023-07-13T10:09:16;24.20;99.90
14471;DHT22;7321;50.802;4.336;2023-07-13T10:11:43;23.90;99.90
14471;DHT22;7321;50.802;4.336;2023-07-13T10:14:12;23.90;99.90
14471;DHT22;7321;50.802;4.336;2023-07-13T10:16:39;23.90;99.90
14471;DHT22;7321;50.802;4.336;2023-07-13T10:19:26;23.90;99.90
14471;DHT22;7321;50.802;4.336;2023-07-13T10:22:04;24.00;99.90
14471;DHT22;7321;50.802;4.336;2023-07-13T10:24:38;23.90;99.90
14471;DHT22;7321;50.802;4.336;2023-07-13T10:27:18;24.00;99.90
14471;DHT22;7321;50.802;4.336;2023-07-13T10:29:48;24.20;99.90
14471;DHT22;7321;50.802;4.336;2023-07-13T10:32:14;24.50;99.90
14471;DHT22;7321;50.802;4.336;2023-07-13T10:34:44;24.50;99.90
14471;DHT22;7321;50.802;4.336;2023-07-13T10:37:24;24.70;99.90
14471;DHT22;7321;50.802;4.336;2023-07-13T10:39:53;24.60;99.90
14471;DHT22;7321;50.802;4.336;2023-07-13T10:42:35;24.40;99.90
14471;DHT22;7321;50.802;4.336;2023-07-13T10:45:20;24.50;99.90
14471;DHT22;7321;50.802;4.336;2023-07-13T10:47:47;24.50;99.90
14471;DHT22;7321;50.802;4.336;2023-07-13T10:50:21;24.60;99.90
14471;DHT22;7321;50.802;4.336;2023-07-13T10:52:50;24.50;99.90
14471;DHT22;7321;50.802;4.336;2023-07-13T10:56:19;24.60;99.90
14471;DHT22;7321;50.802;4.336;2023-07-13T11:03:22;24.80;99.90
14471;DHT22;7321;50.802;4.336;2023-07-13T11:05:49;24.80;99.90
14471;DHT22;7321;50.802;4.336;2023-07-13T11:08:20;24.90;99.90
14471;DHT22;7321;50.802;4.336;2023-07-13T11:10:53;25.00;99.90
14471;DHT22;7321;50.802;4.336;2023-07-13T11:13:55;25.00;99.90
14471;DHT22;7321;50.802;4.336;2023-07-13T11:19:08;25.20;99.90
14471;DHT22;7321;50.802;4.336;2023-07-13T11:24:57;25.20;99.90
14471;DHT22;7321;50.802;4.336;2023-07-13T11:27:45;25.00;99.90
14471;DHT22;7321;50.802;4.336;2023-07-13T11:40:56;25.20;99.90
14471;DHT22;7321;50.802;4.336;2023-07-13T11:43:24;25.00;99.90
14471;DHT22;7321;50.802;4.336;2023-07-13T11:45:51;24.90;99.90
14471;DHT22;7321;50.802;4.336;2023-07-13T11:48:28;24.80;99.90
14471;DHT22;7321;50.802;4.336;2023-07-13T11:51:00;24.80;99.90
14471;DHT22;7321;50.802;4.336;2023-07-13T11:53:29;24.60;99.90
14471;DHT22;7321;50.802;4.336;2023-07-13T11:55:57;24.60;99.90
14471;DHT22;7321;50.802;4.336;2023-07-13T11:58:25;24.50;99.90
14471;DHT22;7321;50.802;4.336;2023-07-13T12:00:52;24.30;99.90
14471;DHT22;7321;50.802;4.336;2023-07-13T12:03:21;24.10;99.90
14471;DHT22;7321;50.802;4.336;2023-07-13T12:06:04;24.10;99.90
14471;DHT22;7321;50.802;4.336;2023-07-13T12:08:32;24.20;99.90
14471;DHT22;7321;50.802;4.336;2023-07-13T12:11:06;24.30;99.90
14471;DHT22;7321;50.802;4.336;2023-07-13T12:13:37;24.50;99.90
14471;DHT22;7321;50.802;4.336;2023-07-13T12:16:15;24.50;99.90
14471;DHT22;7321;50.802;4.336;2023-07-13T12:18:43;24.60;99.90
14471;DHT22;7321;50.802;4.336;2023-07-13T12:21:14;24.60;99.90
14471;DHT22;7321;50.802;4.336;2023-07-13T12:23:44;24.60;99.90
14471;DHT22;7321;50.802;4.336;2023-07-13T12:26:11;24.80;99.90
14471;DHT22;7321;50.802;4.336;2023-07-13T12:28:43;24.80;99.90
14471;DHT22;7321;50.802;4.336;2023-07-13T12:34:08;23.20;99.90
14471;DHT22;7321;50.802;4.336;2023-07-13T12:36:40;22.50;99.90
14471;DHT22;7321;50.802;4.336;2023-07-13T12:44:43;21.80;99.90
14471;DHT22;7321;50.802;4.336;2023-07-13T12:47:13;21.60;99.90
14471;DHT22;7321;50.802;4.336;2023-07-13T12:49:48;21.20;99.90
14471;DHT22;7321;50.802;4.336;2023-07-13T12:52:20;20.80;99.90
14471;DHT22;7321;50.802;4.336;2023-07-13T12:55:05;20.60;99.90
14471;DHT22;7321;50.802;4.336;2023-07-13T12:57:31;20.60;99.90
14471;DHT22;7321;50.802;4.336;2023-07-13T12:59:57;20.70;99.90
14471;DHT22;7321;50.802;4.336;2023-07-13T13:02:34;20.90;99.90
14471;DHT22;7321;50.802;4.336;2023-07-13T13:05:03;21.30;99.90
14471;DHT22;7321;50.802;4.336;2023-07-13T13:07:30;21.60;99.90
14471;DHT22;7321;50.802;4.336;2023-07-13T13:09:56;21.90;99.90
14471;DHT22;7321;50.802;4.336;2023-07-13T13:12:22;22.30;99.90
14471;DHT22;7321;50.802;4.336;2023-07-13T13:14:52;22.50;99.90
14471;DHT22;7321;50.802;4.336;2023-07-13T13:17:26;22.70;99.90
14471;DHT22;7321;50.802;4.336;2023-07-13T13:19:53;23.00;99.90
14471;DHT22;7321;50.802;4.336;2023-07-13T13:22:20;23.10;99.90
14471;DHT22;7321;50.802;4.336;2023-07-13T13:24:46;23.40;99.90
14471;DHT22;7321;50.802;4.336;2023-07-13T13:27:21;23.60;99.90
14471;DHT22;7321;50.802;4.336;2023-07-13T13:29:50;23.80;99.90
14471;DHT22;7321;50.802;4.336;2023-07-13T13:32:19;24.00;99.90
14471;DHT22;7321;50.802;4.336;2023-07-13T13:34:46;23.90;99.90
14471;DHT22;7321;50.802;4.336;2023-07-13T13:37:20;24.20;99.90
14471;DHT22;7321;50.802;4.336;2023-07-13T13:39:48;24.40;99.90
14471;DHT22;7321;50.802;4.336;2023-07-13T13:42:19;24.60;99.90
14471;DHT22;7321;50.802;4.336;2023-07-13T13:44:46;24.80;99.90
14471;DHT22;7321;50.802;4.336;2023-07-13T13:47:27;25.00;99.90
14471;DHT22;7321;50.802;4.336;2023-07-13T13:49:55;25.20;99.90
14471;DHT22;7321;50.802;4.336;2023-07-13T13:52:20;25.30;99.90
14471;DHT22;7321;50.802;4.336;2023-07-13T13:54:46;25.30;99.90
14471;DHT22;7321;50.802;4.336;2023-07-13T13:57:12;25.20;99.90
14471;DHT22;7321;50.802;4.336;2023-07-13T13:59:38;25.20;99.90
14471;DHT22;7321;50.802;4.336;2023-07-13T14:02:27;25.00;99.90
14471;DHT22;7321;50.802;4.336;2023-07-13T14:04:58;25.00;99.90
14471;DHT22;7321;50.802;4.336;2023-07-13T14:07:25;24.90;99.90
14471;DHT22;7321;50.802;4.336;2023-07-13T14:09:57;24.70;99.90
14471;DHT22;7321;50.802;4.336;2023-07-13T14:12:23;24.70;99.90
14471;DHT22;7321;50.802;4.336;2023-07-13T14:14:54;24.70;99.90
14471;DHT22;7321;50.802;4.336;2023-07-13T14:17:25;24.60;99.90
14471;DHT22;7321;50.802;4.336;2023-07-13T14:19:52;24.70;99.90
14471;DHT22;7321;50.802;4.336;2023-07-13T14:22:26;24.60;99.90
14471;DHT22;7321;50.802;4.336;2023-07-13T14:24:53;24.50;99.90
14471;DHT22;7321;50.802;4.336;2023-07-13T14:27:20;24.50;99.90
14471;DHT22;7321;50.802;4.336;2023-07-13T14:29:46;24.40;99.90
14471;DHT22;7321;50.802;4.336;2023-07-13T14:32:13;24.30;99.90
14471;DHT22;7321;50.802;4.336;2023-07-13T14:34:40;24.10;99.90
14471;DHT22;7321;50.802;4.336;2023-07-13T14:37:11;24.00;99.90
14471;DHT22;7321;50.802;4.336;2023-07-13T14:39:38;24.00;99.90
14471;DHT22;7321;50.802;4.336;2023-07-13T14:42:04;23.90;99.90
14471;DHT22;7321;50.802;4.336;2023-07-13T14:44:31;23.80;99.90
14471;DHT22;7321;50.802;4.336;2023-07-13T14:47:03;23.90;99.90
14471;DHT22;7321;50.802;4.336;2023-07-13T14:49:46;24.00;99.90
14471;DHT22;7321;50.802;4.336;2023-07-13T14:52:18;24.10;99.90
14471;DHT22;7321;50.802;4.336;2023-07-13T14:54:54;24.10;99.90
14471;DHT22;7321;50.802;4.336;2023-07-13T14:57:24;24.00;99.90
14471;DHT22;7321;50.802;4.336;2023-07-13T14:59:58;24.20;99.90
14471;DHT22;7321;50.802;4.336;2023-07-13T15:02:33;24.40;99.90
14471;DHT22;7321;50.802;4.336;2023-07-13T15:05:05;24.50;99.90
14471;DHT22;7321;50.802;4.336;2023-07-13T15:07:34;24.70;99.90
14471;DHT22;7321;50.802;4.336;2023-07-13T15:10:01;24.90;99.90
14471;DHT22;7321;50.802;4.336;2023-07-13T15:12:30;25.20;99.90
14471;DHT22;7321;50.802;4.336;2023-07-13T15:15:21;25.20;99.90
14471;DHT22;7321;50.802;4.336;2023-07-13T15:17:52;25.20;99.90
14471;DHT22;7321;50.802;4.336;2023-07-13T15:20:32;25.50;99.90
14471;DHT22;7321;50.802;4.336;2023-07-13T15:22:59;25.80;99.90
14471;DHT22;7321;50.802;4.336;2023-07-13T15:25:27;26.10;99.90
14471;DHT22;7321;50.802;4.336;2023-07-13T15:27:55;26.40;99.90
14471;DHT22;7321;50.802;4.336;2023-07-13T15:30:24;26.60;99.90
14471;DHT22;7321;50.802;4.336;2023-07-13T15:32:51;26.70;99.90
14471;DHT22;7321;50.802;4.336;2023-07-13T15:35:25;26.70;99.90
14471;DHT22;7321;50.802;4.336;2023-07-13T15:37:57;26.70;99.90
14471;DHT22;7321;50.802;4.336;2023-07-13T15:40:30;27.10;99.90
14471;DHT22;7321;50.802;4.336;2023-07-13T15:43:25;26.80;99.90
14471;DHT22;7321;50.802;4.336;2023-07-13T15:45:54;26.90;99.90
14471;DHT22;7321;50.802;4.336;2023-07-13T15:48:22;27.00;99.90
14471;DHT22;7321;50.802;4.336;2023-07-13T15:50:52;27.20;99.90
14471;DHT22;7321;50.802;4.336;2023-07-13T15:53:25;27.20;99.90
14471;DHT22;7321;50.802;4.336;2023-07-13T15:55:53;27.40;99.90
14471;DHT22;7321;50.802;4.336;2023-07-13T15:58:19;27.30;99.90
14471;DHT22;7321;50.802;4.336;2023-07-13T16:00:48;27.30;99.90
14471;DHT22;7321;50.802;4.336;2023-07-13T16:03:52;27.40;99.90
14471;DHT22;7321;50.802;4.336;2023-07-13T16:06:30;27.40;99.90
14471;DHT22;7321;50.802;4.336;2023-07-13T16:09:01;27.50;99.90
14471;DHT22;7321;50.802;4.336;2023-07-13T16:11:33;27.50;99.90
14471;DHT22;7321;50.802;4.336;2023-07-13T16:13:59;27.50;99.90
14471;DHT22;7321;50.802;4.336;2023-07-13T16:16:30;27.40;99.90
14471;DHT22;7321;50.802;4.336;2023-07-13T16:18:58;27.30;99.90
14471;DHT22;7321;50.802;4.336;2023-07-13T16:21:27;27.70;99.90
14471;DHT22;7321;50.802;4.336;2023-07-13T16:23:55;28.20;99.90
14471;DHT22;7321;50.802;4.336;2023-07-13T16:26:32;28.70;99.90
14471;DHT22;7321;50.802;4.336;2023-07-13T16:29:18;29.00;99.90
14471;DHT22;7321;50.802;4.336;2023-07-13T16:32:10;29.30;99.90
14471;DHT22;7321;50.802;4.336;2023-07-13T16:34:42;30.30;99.90
14471;DHT22;7321;50.802;4.336;2023-07-13T16:37:25;30.90;99.90
14471;DHT22;7321;50.802;4.336;2023-07-13T16:39:59;31.50;96.90
14471;DHT22;7321;50.802;4.336;2023-07-13T16:42:35;32.10;92.80
14471;DHT22;7321;50.802;4.336;2023-07-13T16:45:04;32.40;91.20
14471;DHT22;7321;50.802;4.336;2023-07-13T16:47:34;31.30;89.70
14471;DHT22;7321;50.802;4.336;2023-07-13T16:49:59;30.50;91.00
14471;DHT22;7321;50.802;4.336;2023-07-13T16:52:29;29.80;92.10
14471;DHT22;7321;50.802;4.336;2023-07-13T16:54:55;29.10;93.20
14471;DHT22;7321;50.802;4.336;2023-07-13T16:57:25;29.00;93.20